createdAt,value
2018-07-21T00:00:45.289Z,19.20
2018-07-21T00:03:13.821Z,19.20
2018-07-21T00:05:43.756Z,19.20
2018-07-21T00:08:12.458Z,19.20
2018-07-21T00:10:40.928Z,19.20
2018-07-21T00:13:09.395Z,19.20
2018-07-21T00:15:37.918Z,19.20
2018-07-21T00:18:06.360Z,19.20
2018-07-21T00:20:34.802Z,19.20
2018-07-21T00:23:03.234Z,19.20
2018-07-21T00:25:31.844Z,19.20
2018-07-21T00:28:00.302Z,19.30
2018-07-21T00:30:28.794Z,19.30
2018-07-21T00:32:57.272Z,19.30
2018-07-21T00:35:25.877Z,19.30
2018-07-21T00:37:54.526Z,19.30
2018-07-21T00:40:22.978Z,19.30
2018-07-21T00:42:51.458Z,19.30
2018-07-21T00:45:19.928Z,19.30
2018-07-21T00:47:48.384Z,19.30
2018-07-21T00:50:16.848Z,19.30
2018-07-21T00:52:45.305Z,19.40
2018-07-21T00:55:13.917Z,19.40
2018-07-21T00:57:42.354Z,19.40
2018-07-21T01:00:10.902Z,19.40
2018-07-21T01:02:39.442Z,19.40
2018-07-21T01:05:07.914Z,19.40
2018-07-21T01:10:05.598Z,19.50
2018-07-21T01:12:34.178Z,19.50
2018-07-21T01:15:02.630Z,19.50
2018-07-21T01:17:31.178Z,19.50
2018-07-21T01:19:59.767Z,19.50
2018-07-21T01:22:28.356Z,19.50
2018-07-21T01:24:56.804Z,19.50
2018-07-21T01:27:25.283Z,19.50
2018-07-21T01:29:53.720Z,19.50
2018-07-21T01:32:22.190Z,19.50
2018-07-21T01:34:50.637Z,19.40
2018-07-21T01:37:19.213Z,19.40
2018-07-21T01:39:47.797Z,19.40
2018-07-21T01:42:16.221Z,19.30
2018-07-21T01:44:44.691Z,19.20
2018-07-21T01:47:13.586Z,19.20
2018-07-21T01:49:42.072Z,19.10
2018-07-21T01:52:10.829Z,19.10
2018-07-21T01:54:39.401Z,19.10
2018-07-21T01:57:07.871Z,19.00
2018-07-21T01:59:36.351Z,18.90
2018-07-21T02:02:05.177Z,18.90
2018-07-21T02:04:33.856Z,18.80
2018-07-21T02:07:02.356Z,18.80
2018-07-21T02:09:30.823Z,18.70
2018-07-21T02:11:59.279Z,18.70
2018-07-21T02:14:27.794Z,18.60
2018-07-21T02:16:56.306Z,18.60
2018-07-21T02:19:24.768Z,18.50
2018-07-21T02:21:53.245Z,18.50
2018-07-21T02:24:21.714Z,18.50
2018-07-21T02:26:50.149Z,18.50
2018-07-21T02:29:18.590Z,18.50
2018-07-21T02:31:47.033Z,18.50
2018-07-21T02:34:15.530Z,18.40
2018-07-21T02:39:12.935Z,18.40
2018-07-21T02:41:41.619Z,18.30
2018-07-21T02:44:13.390Z,18.30
2018-07-21T02:46:41.931Z,18.30
2018-07-21T02:49:10.351Z,18.20
2018-07-21T02:51:38.781Z,18.20
2018-07-21T02:54:07.258Z,18.20
2018-07-21T02:56:35.700Z,18.10
2018-07-21T02:59:04.971Z,18.10
2018-07-21T03:01:33.889Z,18.10
2018-07-21T03:04:02.403Z,18.10
2018-07-21T03:06:30.868Z,18.10
2018-07-21T03:08:59.412Z,18.00
2018-07-21T03:11:27.985Z,18.00
2018-07-21T03:13:56.568Z,18.00
2018-07-21T03:16:25.190Z,18.00
2018-07-21T03:18:53.749Z,18.00
2018-07-21T03:21:22.199Z,17.90
2018-07-21T03:23:50.680Z,17.90
2018-07-21T03:26:19.102Z,17.90
2018-07-21T03:28:47.534Z,17.80
2018-07-21T03:31:15.997Z,17.80
2018-07-21T03:33:44.537Z,17.70
2018-07-21T03:36:13.001Z,17.70
2018-07-21T03:41:09.752Z,17.60
2018-07-21T03:43:38.176Z,17.60
2018-07-21T03:46:07.178Z,17.50
2018-07-21T03:48:35.616Z,17.50
2018-07-21T03:53:32.607Z,17.50
2018-07-21T03:56:01.080Z,17.50
2018-07-21T03:58:29.574Z,17.40
2018-07-21T04:00:58.279Z,17.40
2018-07-21T04:03:26.765Z,17.40
2018-07-21T04:05:55.219Z,17.40
2018-07-21T04:08:23.688Z,17.40
2018-07-21T04:10:52.168Z,17.30
2018-07-21T04:13:20.661Z,17.30
2018-07-21T04:18:17.346Z,17.30
2018-07-21T04:20:45.799Z,17.30
2018-07-21T04:23:14.370Z,17.20
2018-07-21T04:25:42.915Z,17.20
2018-07-21T04:28:11.613Z,17.30
2018-07-21T04:30:40.110Z,17.30
2018-07-21T04:33:09.801Z,17.30
2018-07-21T04:35:39.422Z,17.30
2018-07-21T04:38:07.980Z,17.30
2018-07-21T04:40:36.419Z,17.40
2018-07-21T04:43:04.979Z,17.40
2018-07-21T04:45:33.435Z,17.40
2018-07-21T04:48:01.878Z,17.50
2018-07-21T04:50:30.432Z,17.50
2018-07-21T04:52:58.861Z,17.60
2018-07-21T04:55:27.431Z,17.60
2018-07-21T04:57:55.885Z,17.60
2018-07-21T05:02:53.032Z,17.70
2018-07-21T05:05:21.483Z,17.80
2018-07-21T05:07:50.264Z,17.80
2018-07-21T05:10:18.699Z,17.80
2018-07-21T05:12:47.127Z,17.80
2018-07-21T05:15:15.687Z,17.80
2018-07-21T05:20:12.492Z,17.80
2018-07-21T05:22:40.895Z,17.90
2018-07-21T05:25:09.379Z,17.90
2018-07-21T05:27:37.812Z,17.90
2018-07-21T05:30:06.604Z,17.90
2018-07-21T05:32:35.041Z,17.90
2018-07-21T05:35:03.567Z,17.90
2018-07-21T05:37:32.245Z,17.90
2018-07-21T05:40:00.842Z,17.90
2018-07-21T05:42:30.269Z,17.90
2018-07-21T05:44:58.766Z,17.90
2018-07-21T05:47:27.413Z,18.00
2018-07-21T05:49:55.868Z,18.00
2018-07-21T05:57:20.709Z,18.10
2018-07-21T05:59:49.599Z,18.10
2018-07-21T06:02:18.076Z,18.20
2018-07-21T06:04:46.534Z,18.20
2018-07-21T06:07:15.017Z,18.30
2018-07-21T06:09:43.477Z,18.40
2018-07-21T06:12:11.960Z,18.50
2018-07-21T06:14:40.465Z,18.60
2018-07-21T06:17:09.043Z,18.60
2018-07-21T06:19:37.494Z,18.60
2018-07-21T06:22:06.026Z,18.70
2018-07-21T06:24:34.491Z,18.80
2018-07-21T06:27:02.947Z,18.90
2018-07-21T06:29:31.519Z,18.90
2018-07-21T06:32:00.075Z,19.00
2018-07-21T06:34:28.640Z,19.00
2018-07-21T06:39:25.534Z,19.20
2018-07-21T06:41:54.103Z,19.20
2018-07-21T06:44:22.681Z,19.40
2018-07-21T06:46:51.242Z,19.40
2018-07-21T06:49:19.754Z,19.50
2018-07-21T06:51:48.215Z,19.60
2018-07-21T06:54:16.736Z,19.70
2018-07-21T06:56:45.345Z,19.80
2018-07-21T06:59:13.927Z,19.90
2018-07-21T07:01:42.312Z,19.90
2018-07-21T07:04:10.845Z,19.90
2018-07-21T07:06:39.340Z,19.90
2018-07-21T07:09:09.434Z,20.00
2018-07-21T07:11:37.880Z,20.10
2018-07-21T07:14:06.459Z,20.20
2018-07-21T07:16:34.931Z,20.20
2018-07-21T07:19:03.421Z,20.30
2018-07-21T07:21:31.990Z,20.50
2018-07-21T07:24:00.570Z,20.50
2018-07-21T07:26:29.104Z,20.60
2018-07-21T07:28:57.560Z,20.70
2018-07-21T07:31:26.047Z,20.70
2018-07-21T07:33:55.448Z,20.70
2018-07-21T07:36:23.939Z,20.70
2018-07-21T07:38:52.590Z,20.80
2018-07-21T07:41:21.062Z,20.90
2018-07-21T07:43:49.538Z,20.90
2018-07-21T07:46:18.241Z,20.90
2018-07-21T07:48:46.698Z,21.00
2018-07-21T07:51:15.318Z,21.20
2018-07-21T07:53:43.785Z,21.20
2018-07-21T07:56:12.286Z,21.20
2018-07-21T07:58:40.744Z,21.20
2018-07-21T08:01:09.363Z,21.10
2018-07-21T08:03:37.796Z,21.20
2018-07-21T08:06:06.288Z,21.30
2018-07-21T08:08:34.756Z,21.50
2018-07-21T08:11:03.880Z,21.60
2018-07-21T08:13:33.322Z,21.70
2018-07-21T08:16:01.824Z,21.70
2018-07-21T08:23:26.632Z,22.10
2018-07-21T08:25:55.140Z,22.20
2018-07-21T08:30:51.891Z,22.30
2018-07-21T08:33:20.556Z,22.40
2018-07-21T08:35:49.007Z,22.60
2018-07-21T08:38:17.612Z,22.90
2018-07-21T08:40:46.079Z,23.00
2018-07-21T08:43:14.605Z,23.10
2018-07-21T08:45:43.181Z,23.10
2018-07-21T08:48:11.676Z,23.00
2018-07-21T08:50:40.321Z,23.00
2018-07-21T08:53:08.765Z,23.30
2018-07-21T08:55:37.417Z,23.60
2018-07-21T08:58:06.036Z,24.10
2018-07-21T09:00:34.536Z,24.30
2018-07-21T09:03:03.081Z,24.30
2018-07-21T09:05:31.537Z,24.30
2018-07-21T09:07:59.969Z,24.40
2018-07-21T09:10:28.481Z,24.60
2018-07-21T09:12:56.942Z,24.60
2018-07-21T09:15:25.494Z,24.70
2018-07-21T09:17:54.243Z,24.90
2018-07-21T09:20:22.924Z,25.10
2018-07-21T09:22:51.397Z,25.40
2018-07-21T09:25:19.900Z,25.60
2018-07-21T09:27:48.489Z,25.60
2018-07-21T09:30:17.029Z,25.80
2018-07-21T09:35:13.643Z,26.00
2018-07-21T09:37:42.145Z,26.20
2018-07-21T09:40:10.615Z,26.60
2018-07-21T09:42:39.125Z,26.60
2018-07-21T09:45:07.692Z,26.10
2018-07-21T09:47:36.100Z,25.80
2018-07-21T09:52:33.326Z,26.00
2018-07-21T09:55:01.781Z,25.90
2018-07-21T09:57:30.265Z,26.00
2018-07-21T09:59:58.694Z,26.50
2018-07-21T10:02:27.255Z,26.90
2018-07-21T10:04:56.234Z,27.40
2018-07-21T10:07:25.002Z,27.70
2018-07-21T10:09:53.546Z,27.90
2018-07-21T10:12:22.238Z,28.20
2018-07-21T10:17:18.895Z,28.50
2018-07-21T10:19:47.376Z,28.80
2018-07-21T10:22:15.953Z,29.40
2018-07-21T10:24:49.790Z,29.80
2018-07-21T10:27:18.280Z,29.40
2018-07-21T10:29:46.846Z,29.30
2018-07-21T10:32:15.591Z,29.40
2018-07-21T10:34:44.064Z,29.40
2018-07-21T10:37:12.537Z,29.40
2018-07-21T10:39:41.109Z,29.50
2018-07-21T10:42:09.960Z,29.70
2018-07-21T10:44:38.543Z,29.50
2018-07-21T10:47:15.114Z,29.60
2018-07-21T10:49:44.711Z,29.40
2018-07-21T10:52:13.152Z,29.10
2018-07-21T10:54:41.678Z,29.00
2018-07-21T10:57:10.286Z,28.70
2018-07-21T10:59:39.106Z,28.50
2018-07-21T11:02:07.680Z,28.20
2018-07-21T11:04:36.312Z,28.20
2018-07-21T11:07:04.822Z,28.00
2018-07-21T11:09:33.287Z,28.00
2018-07-21T11:12:01.916Z,28.10
2018-07-21T11:14:30.434Z,28.00
2018-07-21T11:16:58.902Z,28.00
2018-07-21T11:19:27.404Z,27.80
2018-07-21T11:21:55.952Z,28.00
2018-07-21T11:24:24.475Z,28.20
2018-07-21T11:26:52.940Z,28.50
2018-07-21T11:29:21.428Z,28.60
2018-07-21T11:31:49.884Z,28.80
2018-07-21T11:34:18.326Z,28.90
2018-07-21T11:36:47.204Z,28.90
2018-07-21T11:39:15.662Z,28.60
2018-07-21T11:41:44.174Z,28.70
2018-07-21T11:44:12.787Z,28.90
2018-07-21T11:46:41.215Z,28.90
2018-07-21T11:49:09.724Z,28.80
2018-07-21T11:51:38.260Z,28.70
2018-07-21T11:54:06.827Z,28.80
2018-07-21T11:56:35.532Z,28.70
2018-07-21T11:59:04.071Z,28.60
2018-07-21T12:01:32.631Z,28.60
2018-07-21T12:04:01.145Z,28.50
2018-07-21T12:06:29.739Z,28.60
2018-07-21T12:08:58.331Z,28.80
2018-07-21T12:11:26.859Z,28.80
2018-07-21T12:13:55.489Z,28.70
2018-07-21T12:16:24.055Z,28.80
2018-07-21T12:18:52.518Z,29.00
2018-07-21T12:21:21.104Z,29.10
2018-07-21T12:23:49.606Z,28.80
2018-07-21T12:26:18.135Z,28.80
2018-07-21T12:28:46.727Z,28.60
2018-07-21T12:31:15.186Z,28.20
2018-07-21T12:33:43.703Z,28.00
2018-07-21T12:36:12.127Z,28.00
2018-07-21T12:38:40.629Z,28.40
2018-07-21T12:41:09.211Z,28.60
2018-07-21T12:43:37.815Z,28.60
2018-07-21T12:46:06.489Z,28.70
2018-07-21T12:48:34.970Z,28.30
2018-07-21T12:51:03.998Z,28.30
2018-07-21T12:53:32.427Z,28.90
2018-07-21T12:56:00.899Z,29.40
2018-07-21T12:58:29.447Z,29.90
2018-07-21T13:00:57.913Z,30.50
2018-07-21T13:03:26.419Z,30.50
2018-07-21T13:05:54.977Z,30.80
2018-07-21T13:08:23.426Z,31.20
2018-07-21T13:10:51.979Z,31.30
2018-07-21T13:13:20.449Z,31.60
2018-07-21T13:15:49.009Z,31.60
2018-07-21T13:18:17.475Z,31.00
2018-07-21T13:20:46.027Z,31.20
2018-07-21T13:23:14.467Z,31.20
2018-07-21T13:25:43.021Z,30.90
2018-07-21T13:28:11.620Z,30.60
2018-07-21T13:30:40.808Z,30.10
2018-07-21T13:33:09.418Z,29.80
2018-07-21T13:35:37.975Z,29.50
2018-07-21T13:38:06.531Z,29.50
2018-07-21T13:40:35.045Z,29.70
2018-07-21T13:43:03.616Z,29.70
2018-07-21T13:45:32.061Z,28.90
2018-07-21T13:48:00.671Z,28.50
2018-07-21T13:50:29.270Z,28.60
2018-07-21T13:52:57.718Z,28.90
2018-07-21T13:55:27.370Z,28.90
2018-07-21T13:57:55.902Z,28.80
2018-07-21T14:00:24.430Z,28.80
2018-07-21T14:02:52.876Z,28.70
2018-07-21T14:05:21.414Z,28.20
2018-07-21T14:07:49.959Z,28.20
2018-07-21T14:10:18.417Z,28.00
2018-07-21T14:12:46.876Z,27.90
2018-07-21T14:15:15.408Z,27.80
2018-07-21T14:17:43.881Z,27.80
2018-07-21T14:20:12.344Z,28.00
2018-07-21T14:22:40.869Z,28.30
2018-07-21T14:25:09.438Z,28.20
2018-07-21T14:27:37.910Z,28.10
2018-07-21T14:30:07.852Z,28.00
2018-07-21T14:32:36.305Z,27.80
2018-07-21T14:35:05.020Z,27.70
2018-07-21T14:37:33.470Z,27.80
2018-07-21T14:40:01.916Z,27.70
2018-07-21T14:42:30.466Z,27.60
2018-07-21T14:47:27.220Z,27.20
2018-07-21T14:49:55.690Z,27.00
2018-07-21T14:52:24.176Z,27.10
2018-07-21T14:54:52.728Z,26.90
2018-07-21T14:57:21.158Z,26.70
2018-07-21T15:02:17.843Z,27.10
2018-07-21T15:04:46.410Z,27.30
2018-07-21T15:07:15.008Z,27.50
2018-07-21T15:09:43.655Z,27.60
2018-07-21T15:12:12.148Z,27.70
2018-07-21T15:17:09.155Z,27.90
2018-07-21T15:19:37.656Z,27.70
2018-07-21T15:22:06.353Z,27.60
2018-07-21T15:24:34.814Z,27.60
2018-07-21T15:27:03.290Z,27.50
2018-07-21T15:29:31.730Z,27.50
2018-07-21T15:32:00.194Z,27.30
2018-07-21T15:34:28.929Z,27.20
2018-07-21T15:36:57.589Z,27.10
2018-07-21T15:41:54.306Z,27.10
2018-07-21T15:44:22.761Z,27.00
2018-07-21T15:46:51.287Z,27.00
2018-07-21T15:49:19.807Z,27.10
2018-07-21T15:51:48.378Z,26.80
2018-07-21T15:54:16.969Z,26.90
2018-07-21T15:56:45.485Z,26.80
2018-07-21T15:59:13.950Z,26.70
2018-07-21T16:01:42.495Z,26.60
2018-07-21T16:04:11.013Z,26.60
2018-07-21T16:06:40.887Z,26.70
2018-07-21T16:09:10.834Z,26.70
2018-07-21T16:11:39.648Z,26.60
2018-07-21T16:14:08.281Z,26.60
2018-07-21T16:16:36.733Z,26.60
2018-07-21T16:19:05.751Z,26.60
2018-07-21T16:21:34.261Z,26.60
2018-07-21T16:24:02.783Z,26.60
2018-07-21T16:26:31.461Z,26.70
2018-07-21T16:28:59.958Z,26.70
2018-07-21T16:31:28.497Z,26.80
2018-07-21T16:33:56.999Z,26.80
2018-07-21T16:36:25.460Z,26.60
2018-07-21T16:38:53.928Z,26.70
2018-07-21T16:41:22.385Z,26.80
2018-07-21T16:43:50.911Z,26.60
2018-07-21T16:48:48.343Z,26.20
2018-07-21T16:51:16.948Z,26.30
2018-07-21T16:56:13.647Z,26.20
2018-07-21T16:58:42.089Z,26.30
2018-07-21T17:01:10.632Z,26.40
2018-07-21T17:03:39.112Z,26.40
2018-07-21T17:06:07.589Z,26.40
2018-07-21T17:08:36.207Z,26.50
2018-07-21T17:11:04.689Z,26.50
2018-07-21T17:13:33.180Z,26.40
2018-07-21T17:16:01.735Z,26.50
2018-07-21T17:18:30.249Z,26.40
2018-07-21T17:20:58.914Z,26.40
2018-07-21T17:23:27.404Z,26.30
2018-07-21T17:25:56.057Z,26.30
2018-07-21T17:28:24.512Z,26.30
2018-07-21T17:33:21.293Z,26.10
2018-07-21T17:35:49.769Z,26.10
2018-07-21T17:38:18.215Z,26.10
2018-07-21T17:40:46.685Z,26.00
2018-07-21T17:43:15.177Z,26.00
2018-07-21T17:45:43.740Z,25.90
2018-07-21T17:48:12.331Z,25.80
2018-07-21T17:50:40.860Z,25.70
2018-07-21T17:53:09.440Z,25.60
2018-07-21T17:55:37.972Z,25.50
2018-07-21T17:58:06.611Z,25.40
2018-07-21T18:00:35.174Z,25.40
2018-07-21T18:03:03.682Z,25.20
2018-07-21T18:05:32.277Z,25.10
2018-07-21T18:08:00.712Z,25.10
2018-07-21T18:10:29.242Z,25.10
2018-07-21T18:12:57.773Z,25.00
2018-07-21T18:15:26.229Z,25.00
2018-07-21T18:17:55.654Z,25.00
2018-07-21T18:20:24.383Z,25.00
2018-07-21T18:22:52.823Z,25.00
2018-07-21T18:25:21.376Z,25.10
2018-07-21T18:27:49.846Z,25.10
2018-07-21T18:30:18.292Z,25.00
2018-07-21T18:32:46.835Z,25.00
2018-07-21T18:35:15.290Z,25.00
2018-07-21T18:37:43.852Z,25.00
2018-07-21T18:40:12.371Z,24.90
2018-07-21T18:42:40.857Z,24.80
2018-07-21T18:45:09.283Z,24.80
2018-07-21T18:50:05.947Z,24.60
2018-07-21T18:52:34.553Z,24.60
2018-07-21T18:55:03.130Z,24.50
2018-07-21T18:57:31.589Z,24.50
2018-07-21T19:02:28.243Z,24.40
2018-07-21T19:07:24.883Z,24.30
2018-07-21T19:09:53.373Z,24.20
2018-07-21T19:12:27.180Z,24.20
2018-07-21T19:14:55.681Z,24.10
2018-07-21T19:17:24.111Z,24.10
2018-07-21T19:19:58.057Z,24.00
2018-07-21T19:22:26.544Z,23.90
2018-07-21T19:24:55.009Z,23.90
2018-07-21T19:27:28.909Z,23.80
2018-07-21T19:29:57.452Z,23.70
2018-07-21T19:32:31.353Z,23.60
2018-07-21T19:34:59.811Z,23.50
2018-07-21T19:37:33.684Z,23.50
2018-07-21T19:40:02.358Z,23.40
2018-07-21T19:42:31.044Z,23.30
2018-07-21T19:44:59.528Z,23.20
2018-07-21T19:47:27.985Z,23.20
2018-07-21T19:49:56.481Z,23.10
2018-07-21T19:52:24.954Z,23.10
2018-07-21T19:54:53.522Z,23.00
2018-07-21T19:57:22.455Z,22.90
2018-07-21T19:59:50.943Z,22.80
2018-07-21T20:02:19.402Z,22.80
2018-07-21T20:04:47.863Z,22.70
2018-07-21T20:09:45.434Z,22.60
2018-07-21T20:12:13.895Z,22.40
2018-07-21T20:14:42.676Z,22.40
2018-07-21T20:17:11.552Z,22.30
2018-07-21T20:19:40.837Z,22.30
2018-07-21T20:22:16.550Z,22.20
2018-07-21T20:24:45.076Z,22.10
2018-07-21T20:27:13.566Z,22.00
2018-07-21T20:29:42.046Z,22.00
2018-07-21T20:32:10.520Z,21.90
2018-07-21T20:34:39.465Z,21.80
2018-07-21T20:37:08.000Z,21.80
2018-07-21T20:39:36.469Z,21.80
2018-07-21T20:42:05.033Z,21.70
2018-07-21T20:47:01.704Z,21.60
2018-07-21T20:49:30.177Z,21.60
2018-07-21T20:51:58.639Z,21.50
2018-07-21T20:54:27.181Z,21.50
2018-07-21T20:56:55.736Z,21.40
2018-07-21T20:59:24.241Z,21.30
2018-07-21T21:01:52.711Z,21.30
2018-07-21T21:04:21.244Z,21.30
2018-07-21T21:06:49.714Z,21.10
2018-07-21T21:09:18.295Z,21.10
2018-07-21T21:11:46.828Z,21.00
2018-07-21T21:14:15.456Z,21.00
2018-07-21T21:16:43.920Z,21.00
2018-07-21T21:19:12.364Z,20.90
2018-07-21T21:21:40.817Z,20.90
2018-07-21T21:24:09.336Z,20.90
2018-07-21T21:26:37.770Z,20.90
2018-07-21T21:29:06.324Z,20.80
2018-07-21T21:31:34.806Z,20.80
2018-07-21T21:34:03.284Z,20.70
2018-07-21T21:36:31.760Z,20.60
2018-07-21T21:39:00.246Z,20.60
2018-07-21T21:41:28.725Z,20.50
2018-07-21T21:43:57.179Z,20.40
2018-07-21T21:48:54.328Z,20.30
2018-07-21T21:51:22.897Z,20.20
2018-07-21T21:53:51.404Z,20.10
2018-07-21T21:56:19.867Z,20.10
2018-07-21T21:58:48.419Z,20.00
2018-07-21T22:01:17.116Z,20.00
2018-07-21T22:03:46.005Z,19.90
2018-07-21T22:06:14.600Z,19.90
2018-07-21T22:08:43.059Z,19.90
2018-07-21T22:11:11.528Z,19.90
2018-07-21T22:16:08.417Z,19.80
2018-07-21T22:18:36.957Z,19.70
2018-07-21T22:23:33.637Z,19.60
2018-07-21T22:26:02.117Z,19.50
2018-07-21T22:28:30.611Z,19.50
2018-07-21T22:30:59.097Z,19.40
2018-07-21T22:33:27.679Z,19.40
2018-07-21T22:35:56.190Z,19.40
2018-07-21T22:38:24.675Z,19.30
2018-07-21T22:40:53.206Z,19.30
2018-07-21T22:43:21.687Z,19.20
2018-07-21T22:45:50.277Z,19.20
2018-07-21T22:50:46.962Z,19.00
2018-07-21T22:53:15.429Z,19.00
2018-07-21T22:55:43.894Z,19.00
2018-07-21T22:58:12.335Z,19.00
2018-07-21T23:00:40.803Z,18.90
2018-07-21T23:03:09.306Z,18.90
2018-07-21T23:05:37.769Z,18.80
2018-07-21T23:08:06.392Z,18.80
2018-07-21T23:10:34.904Z,18.80
2018-07-21T23:13:03.460Z,18.70
2018-07-21T23:15:31.872Z,18.70
2018-07-21T23:18:00.320Z,18.70
2018-07-21T23:20:28.830Z,18.60
2018-07-21T23:22:57.280Z,18.60
2018-07-21T23:25:25.728Z,18.60
2018-07-21T23:27:54.212Z,18.50
2018-07-21T23:30:22.734Z,18.50
2018-07-21T23:32:51.462Z,18.50
2018-07-21T23:35:20.011Z,18.40
2018-07-21T23:37:48.590Z,18.40
2018-07-21T23:40:18.204Z,18.30
2018-07-21T23:42:46.664Z,18.30
2018-07-21T23:45:15.120Z,18.20
2018-07-21T23:47:43.567Z,18.20
2018-07-21T23:50:12.016Z,18.10
2018-07-21T23:52:40.548Z,18.10
2018-07-21T23:55:09.518Z,18.10
